Time;durP1;ratioP1;P1;durP2;ratioP2;P2;SDS_P1;SDS_P2;PMS_P1;PMS_P2;Temp;Humidity;BMP_temperature;BMP_pressure;BME280_temperature;BME280_humidity;BME280_pressure;Samples;Min_cycle;Max_cycle;Signal;HPM_P1;HPM_P2
2022/01/17 00:01:12;;;;;;;52.28;20.88;;;1.50;99.90;;;;;;5071068;28;20049;-60
2022/01/17 00:03:39;;;;;;;47.15;21.17;;;1.50;99.90;;;;;;5070781;28;20445;-60
2022/01/17 00:06:06;;;;;;;53.25;23.30;;;1.50;99.90;;;;;;5073778;28;20094;-60
2022/01/17 00:08:33;;;;;;;53.63;22.70;;;1.60;99.90;;;;;;5074103;28;20041;-60
2022/01/17 00:11:00;;;;;;;53.28;21.17;;;1.60;99.90;;;;;;5074729;28;20045;-60
2022/01/17 00:13:29;;;;;;;48.00;22.50;;;1.60;99.90;;;;;;5074171;28;20775;-60
2022/01/17 00:16:20;;;;;;;49.05;20.60;;;1.60;99.90;;;;;;5074290;28;20040;-60
2022/01/17 00:21:16;;;;;;;49.75;21.38;;;1.60;99.90;;;;;;5074572;28;20048;-60
2022/01/17 00:23:43;;;;;;;54.65;22.90;;;1.50;99.90;;;;;;5074336;28;20132;-60
2022/01/17 00:26:10;;;;;;;49.60;21.38;;;1.50;99.90;;;;;;5073689;28;20045;-60
2022/01/17 00:28:37;;;;;;;50.22;22.23;;;1.50;99.90;;;;;;5074415;28;20123;-60
2022/01/17 00:31:07;;;;;;;47.38;21.60;;;1.60;99.90;;;;;;5074154;28;20045;-60
2022/01/17 00:33:35;;;;;;;54.22;22.38;;;1.60;99.90;;;;;;5074603;28;20477;-60
2022/01/17 00:36:02;;;;;;;49.80;22.65;;;1.50;99.90;;;;;;5073428;28;20045;-60
2022/01/17 00:38:29;;;;;;;48.65;22.10;;;1.40;99.90;;;;;;5074187;28;20045;-60
2022/01/17 00:40:56;;;;;;;48.20;22.92;;;1.50;99.90;;;;;;5073767;28;20087;-60
2022/01/17 00:43:23;;;;;;;36.20;17.15;;;1.50;99.90;;;;;;5074069;28;20102;-60
2022/01/17 00:45:50;;;;;;;47.55;20.90;;;1.40;99.90;;;;;;5073799;28;20120;-60
2022/01/17 00:48:16;;;;;;;51.25;23.08;;;1.40;99.90;;;;;;5073523;28;20049;-60
2022/01/17 00:50:44;;;;;;;49.88;22.98;;;1.40;99.90;;;;;;5073973;28;20044;-60
2022/01/17 00:53:11;;;;;;;47.38;21.77;;;1.50;99.90;;;;;;5073410;28;20127;-60
2022/01/17 00:55:38;;;;;;;57.30;22.85;;;1.50;99.90;;;;;;5073542;28;20119;-60
2022/01/17 00:58:06;;;;;;;;;;;1.50;99.90;;;;;;5073749;28;20047;-60
2022/01/17 01:00:33;;;;;;;51.10;20.88;;;1.50;99.90;;;;;;5073870;28;19924;-60
2022/01/17 01:03:00;;;;;;;;;;;1.50;99.90;;;;;;5074290;28;20507;-60
2022/01/17 01:05:27;;;;;;;54.63;22.13;;;1.50;99.90;;;;;;5072839;28;19920;-61
2022/01/17 01:07:54;;;;;;;46.63;22.27;;;1.40;99.90;;;;;;5073765;28;20098;-60
2022/01/17 01:10:21;;;;;;;53.45;22.67;;;1.30;99.90;;;;;;5073173;28;20040;-60
2022/01/17 01:12:49;;;;;;;47.97;22.25;;;1.30;99.90;;;;;;5073588;28;20048;-59
2022/01/17 01:15:34;;;;;;;45.97;21.67;;;1.30;99.90;;;;;;5072557;28;20044;-59
2022/01/17 01:18:12;;;;;;;48.45;20.30;;;1.30;99.90;;;;;;5072845;28;20070;-59
2022/01/17 01:28:38;;;;;;;49.65;22.00;;;1.30;99.90;;;;;;5073682;28;20443;-59
2022/01/17 01:31:11;;;;;;;48.53;22.70;;;1.20;99.90;;;;;;5073405;28;20044;-59
2022/01/17 01:33:41;;;;;;;52.53;21.73;;;1.20;99.90;;;;;;5073003;28;20102;-59
2022/01/17 01:36:17;;;;;;;54.75;24.08;;;1.20;99.90;;;;;;5072885;28;20082;-61
2022/01/17 01:38:44;;;;;;;52.15;21.63;;;1.20;99.90;;;;;;5072638;28;20041;-61
2022/01/17 01:41:11;;;;;;;52.40;22.52;;;1.20;99.90;;;;;;5073041;28;20052;-61
2022/01/17 01:43:37;;;;;;;53.70;23.95;;;1.30;99.90;;;;;;5072604;28;20049;-61
2022/01/17 01:46:05;;;;;;;50.47;21.90;;;1.30;99.90;;;;;;5072435;28;20113;-61
2022/01/17 01:48:35;;;;;;;49.67;22.77;;;1.40;99.90;;;;;;5072368;28;20041;-61
2022/01/17 01:51:02;;;;;;;49.40;23.02;;;1.40;99.90;;;;;;5072669;28;20404;-61
2022/01/17 01:53:29;;;;;;;50.55;21.27;;;1.40;99.90;;;;;;5073065;28;20032;-61
2022/01/17 01:55:58;;;;;;;48.92;22.00;;;1.40;99.90;;;;;;5071986;28;20048;-61
2022/01/17 01:58:26;;;;;;;54.20;22.92;;;1.50;99.90;;;;;;5072735;28;20101;-61
2022/01/17 02:00:54;;;;;;;49.90;21.88;;;1.50;99.90;;;;;;5071952;28;20079;-61
2022/01/17 02:03:22;;;;;;;47.78;20.55;;;1.50;99.90;;;;;;5072643;28;20048;-61
2022/01/17 02:05:49;;;;;;;44.70;20.38;;;1.50;99.90;;;;;;5071706;28;20078;-61
2022/01/17 02:08:16;;;;;;;50.67;21.40;;;1.50;99.90;;;;;;5072447;28;20044;-61
2022/01/17 02:10:43;;;;;;;50.00;21.58;;;1.60;99.90;;;;;;5072004;28;20054;-60
2022/01/17 02:13:10;;;;;;;46.30;21.05;;;1.60;99.90;;;;;;5072261;28;20044;-61
2022/01/17 02:15:38;;;;;;;46.65;20.23;;;1.60;99.90;;;;;;5071848;28;20098;-61
2022/01/17 02:18:07;;;;;;;50.35;20.35;;;1.50;99.90;;;;;;5071821;28;20492;-61
2022/01/17 02:20:44;;;;;;;44.53;20.35;;;1.50;99.90;;;;;;5072150;28;20575;-61
2022/01/17 02:23:13;;;;;;;46.95;20.08;;;1.50;99.90;;;;;;5071703;28;20543;-61
2022/01/17 02:25:40;;;;;;;41.80;19.33;;;1.60;99.90;;;;;;5071898;28;20094;-61
2022/01/17 02:28:07;;;;;;;46.95;21.58;;;1.60;99.90;;;;;;5071486;28;20037;-61
2022/01/17 02:30:34;;;;;;;43.75;20.25;;;1.60;99.90;;;;;;5072129;28;20094;-61
2022/01/17 02:33:02;;;;;;;45.38;20.33;;;1.60;99.90;;;;;;5072124;28;20106;-61
2022/01/17 02:35:30;;;;;;;42.13;19.55;;;1.60;99.90;;;;;;5071277;28;20101;-61
2022/01/17 02:37:57;;;;;;;45.90;19.80;;;1.60;99.90;;;;;;5071844;28;20086;-61
2022/01/17 02:40:26;;;;;;;42.63;20.35;;;1.60;99.90;;;;;;5071430;28;20499;-61
2022/01/17 02:43:02;;;;;;;47.67;20.48;;;1.40;99.90;;;;;;5071908;28;20051;-61
2022/01/17 02:45:36;;;;;;;47.03;20.33;;;1.40;99.90;;;;;;5070737;28;20052;-61
2022/01/17 02:48:11;;;;;;;46.88;21.60;;;1.40;99.90;;;;;;5071901;28;20087;-61
2022/01/17 02:50:39;;;;;;;53.33;22.75;;;1.40;99.90;;;;;;5085590;22;20041;-50
2022/01/17 02:53:10;;;;;;;43.85;20.90;;;1.40;99.90;;;;;;5067278;28;20124;-52
2022/01/17 02:55:37;;;;;;;46.42;21.40;;;1.40;99.90;;;;;;5059186;28;20063;-53
2022/01/17 02:58:04;;;;;;;48.42;23.00;;;1.30;99.90;;;;;;5071754;28;20052;-52
2022/01/17 03:00:31;;;;;;;52.83;22.95;;;1.30;99.90;;;;;;5080912;28;20043;-52
2022/01/17 03:02:58;;;;;;;54.20;22.63;;;1.30;99.90;;;;;;5091548;28;20040;-53
2022/01/17 03:05:25;;;;;;;49.35;22.48;;;1.30;99.90;;;;;;5091327;28;20427;-51
2022/01/17 03:07:52;;;;;;;45.45;20.17;;;1.40;99.90;;;;;;5091372;28;20407;-54
2022/01/17 03:12:46;;;;;;;46.55;20.73;;;1.40;99.90;;;;;;5091243;28;20051;-50
2022/01/17 03:15:13;;;;;;;50.70;20.38;;;1.40;99.90;;;;;;5091184;28;20554;-51
2022/01/17 03:17:40;;;;;;;43.15;19.15;;;1.40;99.90;;;;;;5091319;28;20046;-54
2022/01/17 03:20:08;;;;;;;42.13;19.02;;;1.50;99.90;;;;;;5091816;28;20500;-50
2022/01/17 03:22:35;;;;;;;;;;;1.40;99.90;;;;;;5092104;28;20090;-50
2022/01/17 03:25:02;;;;;;;44.80;19.17;;;1.40;99.90;;;;;;5090823;28;19973;-51
2022/01/17 03:27:29;;;;;;;42.42;19.30;;;1.40;99.90;;;;;;5091385;28;20496;-51
2022/01/17 03:29:56;;;;;;;40.10;19.45;;;1.50;99.90;;;;;;5091029;28;20044;-52
2022/01/17 03:32:23;;;;;;;45.85;18.00;;;1.40;99.90;;;;;;5091494;28;20070;-53
2022/01/17 03:34:49;;;;;;;35.03;16.00;;;1.50;99.90;;;;;;5091186;28;20040;-51
2022/01/17 03:37:16;;;;;;;44.88;19.48;;;1.50;99.90;;;;;;5091179;28;20054;-51
2022/01/17 03:39:43;;;;;;;41.15;19.08;;;1.50;99.90;;;;;;5091970;28;20057;-53
2022/01/17 03:42:10;;;;;;;33.92;14.43;;;1.60;99.90;;;;;;5095363;28;20489;-53
2022/01/17 03:44:37;;;;;;;43.33;18.50;;;1.60;99.90;;;;;;5095634;28;20081;-53
2022/01/17 03:47:04;;;;;;;45.38;19.40;;;1.50;99.90;;;;;;5094562;28;20097;-51
2022/01/17 03:49:31;;;;;;;46.05;19.15;;;1.50;99.90;;;;;;5095697;28;20500;-50
2022/01/17 03:51:58;;;;;;;42.03;17.98;;;1.60;99.90;;;;;;5094791;28;20044;-50
2022/01/17 03:54:24;;;;;;;46.90;19.33;;;1.50;99.90;;;;;;5095248;28;20044;-50
2022/01/17 03:56:51;;;;;;;49.08;20.05;;;1.50;99.90;;;;;;5094565;28;20454;-53
2022/01/17 03:59:18;;;;;;;44.45;20.35;;;1.60;99.90;;;;;;5095453;28;20048;-50
2022/01/17 04:01:45;;;;;;;45.83;20.85;;;1.60;99.90;;;;;;5095114;28;20411;-51
2022/01/17 04:04:12;;;;;;;;;;;1.60;99.90;;;;;;5095236;28;20044;-52
2022/01/17 04:06:40;;;;;;;43.20;18.85;;;1.70;99.90;;;;;;5094723;28;19950;-50
2022/01/17 04:09:06;;;;;;;39.33;18.95;;;1.80;99.90;;;;;;5094808;28;20105;-50
2022/01/17 04:11:33;;;;;;;38.20;18.08;;;1.80;99.90;;;;;;5095074;28;20397;-55
2022/01/17 04:14:00;;;;;;;48.85;20.08;;;1.90;99.90;;;;;;5094535;28;20040;-52
2022/01/17 04:16:27;;;;;;;40.15;18.27;;;1.80;99.90;;;;;;5094454;28;20044;-50
2022/01/17 04:18:55;;;;;;;39.63;17.40;;;1.80;99.90;;;;;;5094611;28;20040;-51
2022/01/17 04:21:22;;;;;;;40.85;19.02;;;1.90;99.90;;;;;;5094653;28;20484;-52
2022/01/17 04:23:48;;;;;;;28.83;12.45;;;1.80;99.90;;;;;;5094908;28;20040;-50
2022/01/17 04:26:15;;;;;;;48.00;20.50;;;1.90;99.90;;;;;;5093866;28;20058;-53
2022/01/17 04:28:42;;;;;;;43.65;19.85;;;1.80;99.90;;;;;;5094561;28;20510;-50
2022/01/17 04:31:09;;;;;;;46.95;20.65;;;1.70;99.90;;;;;;5093974;28;20721;-51
2022/01/17 04:33:36;;;;;;;45.25;20.52;;;1.60;99.90;;;;;;5094461;28;20488;-53
2022/01/17 04:36:06;;;;;;;46.65;15.60;;;1.60;99.90;;;;;;5093655;28;20097;-51
2022/01/17 04:38:34;;;;;;;53.60;22.58;;;1.60;99.90;;;;;;5094664;28;20040;-51
2022/01/17 04:41:04;;;;;;;;;;;1.50;99.90;;;;;;5094540;28;20109;-51
2022/01/17 04:46:21;;;;;;;50.35;21.80;;;1.40;99.90;;;;;;5064866;28;20052;-53
2022/01/17 04:48:48;;;;;;;53.78;23.50;;;1.40;99.90;;;;;;5093869;28;20044;-53
2022/01/17 04:51:15;;;;;;;50.38;23.60;;;1.40;99.90;;;;;;5093529;28;20093;-53
2022/01/17 04:53:51;;;;;;;40.45;18.63;;;1.40;99.90;;;;;;5084656;28;20044;-56
2022/01/17 04:56:18;;;;;;;48.17;22.15;;;1.40;99.90;;;;;;5073506;28;20094;-53
2022/01/17 04:58:45;;;;;;;49.25;20.55;;;1.50;99.90;;;;;;5073401;28;20493;-55
2022/01/17 05:01:12;;;;;;;44.33;20.02;;;1.60;99.90;;;;;;5076661;28;20044;-56
2022/01/17 05:03:39;;;;;;;27.83;14.63;;;1.60;99.90;;;;;;5086153;28;20135;-52
2022/01/17 05:06:06;;;;;;;26.73;12.20;;;1.40;99.90;;;;;;5092655;28;20048;-53
2022/01/17 05:08:33;;;;;;;16.30;7.25;;;1.70;99.90;;;;;;5093839;28;20488;-54
2022/01/17 05:11:00;;;;;;;18.30;8.18;;;1.70;99.90;;;;;;5093410;28;20040;-54
2022/01/17 05:13:32;;;;;;;22.35;9.70;;;1.70;99.90;;;;;;5087808;28;20044;-54
2022/01/17 05:16:08;;;;;;;29.02;12.90;;;1.70;99.90;;;;;;5090883;28;20044;-52
2022/01/17 05:21:02;;;;;;;21.98;10.85;;;1.60;99.90;;;;;;5093254;28;20082;-50
2022/01/17 05:23:29;;;;;;;;;;;1.60;99.90;;;;;;5087753;28;20040;-52
2022/01/17 05:25:56;;;;;;;26.95;11.55;;;1.60;99.90;;;;;;5090131;28;19960;-53
2022/01/17 05:28:23;;;;;;;31.52;13.00;;;1.70;99.90;;;;;;5091636;28;20040;-55
2022/01/17 05:30:50;;;;;;;28.58;13.02;;;1.70;99.90;;;;;;5092831;28;20039;-52
2022/01/17 05:33:16;;;;;;;20.02;9.80;;;1.80;99.90;;;;;;5092741;28;20488;-52
2022/01/17 05:35:43;;;;;;;23.30;10.93;;;1.80;99.90;;;;;;5092735;28;20085;-53
2022/01/17 05:38:11;;;;;;;23.60;11.00;;;1.80;99.90;;;;;;5092609;28;20666;-50
2022/01/17 05:40:38;;;;;;;22.25;10.02;;;1.80;99.90;;;;;;5092669;28;20051;-55
2022/01/17 05:43:05;;;;;;;20.92;10.43;;;1.80;99.90;;;;;;5092724;28;20500;-52
2022/01/17 05:45:32;;;;;;;18.08;8.60;;;1.80;99.90;;;;;;5092254;28;20040;-54
2022/01/17 05:47:58;;;;;;;20.90;10.15;;;1.80;99.90;;;;;;5092551;28;20044;-52
2022/01/17 05:50:25;;;;;;;27.85;12.13;;;1.90;99.90;;;;;;5092395;28;20075;-50
2022/01/17 05:52:52;;;;;;;23.25;11.30;;;2.00;99.90;;;;;;5092916;28;20032;-51
2022/01/17 05:55:19;;;;;;;26.08;12.02;;;2.10;99.90;;;;;;5091920;28;20044;-51
2022/01/17 05:57:46;;;;;;;23.55;11.80;;;2.10;99.90;;;;;;5093086;28;20504;-52
2022/01/17 06:00:15;;;;;;;27.58;12.38;;;2.20;99.90;;;;;;5092397;28;20067;-51
2022/01/17 06:02:45;;;;;;;26.63;12.00;;;2.20;99.90;;;;;;5092576;28;20465;-52
2022/01/17 06:05:12;;;;;;;26.77;11.90;;;2.30;99.90;;;;;;5092159;28;20073;-52
2022/01/17 06:07:39;;;;;;;;;;;2.30;99.90;;;;;;5092418;28;20067;-55
2022/01/17 06:10:07;;;;;;;21.27;10.23;;;2.30;99.90;;;;;;5091977;28;20465;-52
2022/01/17 06:12:34;;;;;;;26.42;11.90;;;2.30;99.90;;;;;;5091698;28;20044;-51
2022/01/17 06:15:01;;;;;;;25.90;12.77;;;2.40;99.90;;;;;;5092798;28;20084;-50
2022/01/17 06:17:28;;;;;;;34.63;15.52;;;2.30;99.90;;;;;;5092007;28;20139;-53
2022/01/17 06:19:55;;;;;;;30.63;13.95;;;2.30;99.90;;;;;;5092289;28;20039;-54
2022/01/17 06:22:22;;;;;;;25.00;12.32;;;2.20;99.90;;;;;;5092426;28;20040;-54
2022/01/17 06:24:50;;;;;;;33.45;15.45;;;2.20;99.90;;;;;;5092163;28;20044;-53
2022/01/17 06:27:17;;;;;;;31.45;15.57;;;2.20;99.90;;;;;;5073566;28;20462;-50
2022/01/17 06:29:44;;;;;;;29.95;13.75;;;2.20;99.90;;;;;;5091851;28;20059;-52
2022/01/17 06:32:11;;;;;;;31.98;15.15;;;2.20;99.90;;;;;;5092336;28;20040;-54
2022/01/17 06:34:54;;;;;;;36.90;15.75;;;2.10;99.90;;;;;;5091101;28;20047;-55
2022/01/17 06:37:21;;;;;;;31.90;15.50;;;2.10;99.90;;;;;;5091252;28;20048;-53
2022/01/17 06:39:50;;;;;;;32.10;15.25;;;2.10;99.90;;;;;;5090364;28;20070;-56
2022/01/17 06:42:17;;;;;;;38.08;16.38;;;2.10;99.90;;;;;;5091993;28;20097;-53
2022/01/17 06:44:44;;;;;;;32.03;14.57;;;2.10;99.90;;;;;;5091832;28;20044;-53
2022/01/17 06:47:11;;;;;;;32.72;15.15;;;2.10;99.90;;;;;;5072965;28;20081;-51
2022/01/17 06:49:38;;;;;;;33.95;14.13;;;2.00;99.90;;;;;;5091818;28;20040;-51
2022/01/17 06:52:05;;;;;;;29.13;14.40;;;2.00;99.90;;;;;;5091670;28;20043;-55
2022/01/17 06:54:32;;;;;;;25.40;13.30;;;2.00;99.90;;;;;;5091941;28;20040;-51
2022/01/17 06:56:59;;;;;;;31.83;14.90;;;2.10;99.90;;;;;;5090895;28;20089;-51
2022/01/17 06:59:26;;;;;;;38.25;17.48;;;2.10;99.90;;;;;;5091829;28;20561;-51
2022/01/17 07:01:53;;;;;;;33.10;16.08;;;2.10;99.90;;;;;;5091646;28;20507;-53
2022/01/17 07:04:20;;;;;;;38.65;18.10;;;2.10;99.90;;;;;;5091346;28;20105;-50
2022/01/17 07:06:46;;;;;;;38.30;16.70;;;2.10;99.90;;;;;;5091408;28;20054;-51
2022/01/17 07:09:16;;;;;;;26.40;12.88;;;2.10;99.90;;;;;;5091475;28;20456;-50
2022/01/17 07:11:43;;;;;;;30.02;14.55;;;2.10;99.90;;;;;;5091896;28;20051;-53
2022/01/17 07:14:11;;;;;;;;;;;2.20;99.90;;;;;;5090503;28;20488;-50
2022/01/17 07:16:40;;;;;;;30.23;14.55;;;2.20;99.90;;;;;;5091417;28;19923;-52
2022/01/17 07:19:08;;;;;;;28.80;13.30;;;2.20;99.90;;;;;;5090984;28;20063;-50
2022/01/17 07:21:35;;;;;;;24.75;11.75;;;2.20;99.90;;;;;;5091630;28;20145;-55
2022/01/17 07:24:03;;;;;;;24.40;12.50;;;2.20;99.90;;;;;;5091853;28;20578;-50
2022/01/17 07:26:30;;;;;;;26.33;12.80;;;2.20;99.90;;;;;;5090627;28;20489;-54
2022/01/17 07:28:57;;;;;;;21.08;10.57;;;2.20;99.90;;;;;;5091345;28;20043;-52
2022/01/17 07:31:24;;;;;;;21.30;11.18;;;2.20;99.90;;;;;;5090621;28;20052;-52
2022/01/17 07:33:56;;;;;;;28.38;12.07;;;2.20;99.90;;;;;;5091494;28;20446;-50
2022/01/17 07:36:29;;;;;;;32.22;15.75;;;2.20;99.90;;;;;;5090628;28;20054;-52
2022/01/17 07:38:57;;;;;;;35.70;16.98;;;2.20;99.90;;;;;;5091382;28;20415;-51
2022/01/17 07:41:24;;;;;;;37.72;16.50;;;2.10;99.90;;;;;;5090722;28;20445;-53
2022/01/17 07:44:02;;;;;;;34.53;16.60;;;2.10;99.90;;;;;;5091385;28;20478;-52
2022/01/17 07:46:35;;;;;;;44.97;20.45;;;2.20;99.90;;;;;;5090972;28;20048;-51
2022/01/17 07:49:10;;;;;;;40.15;18.92;;;2.10;99.90;;;;;;5090708;28;20036;-51
2022/01/17 07:51:41;;;;;;;41.25;18.67;;;2.10;99.90;;;;;;5091100;28;20127;-55
2022/01/17 07:54:10;;;;;;;45.47;20.23;;;2.20;99.90;;;;;;5090493;28;20074;-53
2022/01/17 07:56:38;;;;;;;42.70;20.67;;;2.20;99.90;;;;;;5090851;28;20051;-52
2022/01/17 07:59:07;;;;;;;54.70;23.00;;;2.20;99.90;;;;;;5090588;28;20093;-51
2022/01/17 08:01:35;;;;;;;46.10;20.90;;;2.20;99.90;;;;;;5091326;28;20588;-53
2022/01/17 08:04:03;;;;;;;48.75;21.00;;;2.10;99.90;;;;;;5090589;28;20421;-51
2022/01/17 08:06:36;;;;;;;43.40;20.70;;;2.10;99.90;;;;;;5090670;28;20061;-51
2022/01/17 08:09:10;;;;;;;45.53;21.85;;;2.20;99.90;;;;;;5091018;28;20048;-50
2022/01/17 08:11:58;;;;;;;48.22;22.58;;;2.20;99.90;;;;;;5090972;28;20551;-51
2022/01/17 08:14:25;;;;;;;49.97;21.63;;;2.20;99.90;;;;;;5091073;28;20521;-51
2022/01/17 08:16:53;;;;;;;44.33;21.52;;;2.20;99.90;;;;;;5090141;28;20078;-52
2022/01/17 08:19:24;;;;;;;45.35;22.10;;;2.20;99.90;;;;;;5090960;28;20484;-53
2022/01/17 08:21:57;;;;;;;50.05;23.25;;;2.30;99.90;;;;;;5090833;28;20101;-51
2022/01/17 08:24:24;;;;;;;;;;;2.20;99.90;;;;;;5091223;28;20044;-54
2022/01/17 08:26:51;;;;;;;48.60;20.73;;;2.20;99.90;;;;;;5092818;28;19966;-50
2022/01/17 08:29:18;;;;;;;44.55;21.15;;;2.20;99.90;;;;;;5094443;28;20523;-51
2022/01/17 08:31:47;;;;;;;46.90;21.77;;;2.20;99.90;;;;;;5094444;28;20484;-50
2022/01/17 08:34:17;;;;;;;35.15;17.92;;;2.30;99.90;;;;;;5094547;28;20060;-50
2022/01/17 08:36:45;;;;;;;39.97;17.60;;;2.30;99.90;;;;;;5093967;28;20072;-51
2022/01/17 08:39:13;;;;;;;38.42;17.48;;;2.40;99.90;;;;;;5094076;28;20107;-55
2022/01/17 08:41:42;;;;;;;42.92;19.98;;;2.40;99.90;;;;;;5094427;28;20480;-50
2022/01/17 08:44:12;;;;;;;37.33;19.52;;;2.40;99.90;;;;;;5093871;28;20046;-52
2022/01/17 08:46:41;;;;;;;31.83;15.40;;;2.40;99.90;;;;;;5094014;28;20051;-53
2022/01/17 08:49:09;;;;;;;32.22;15.77;;;2.40;99.90;;;;;;5093586;28;20051;-50
2022/01/17 08:51:36;;;;;;;35.83;15.32;;;2.40;99.90;;;;;;5122272;22;20500;-58
2022/01/17 08:54:04;;;;;;;36.95;15.85;;;2.40;99.90;;;;;;5111977;28;20430;-60
2022/01/17 08:56:31;;;;;;;27.90;15.23;;;2.50;99.90;;;;;;5113752;28;20043;-60
2022/01/17 08:59:02;;;;;;;32.17;14.38;;;2.50;99.90;;;;;;5114586;28;20058;-60
2022/01/17 09:01:29;;;;;;;28.85;14.63;;;2.50;99.90;;;;;;5128031;27;20043;-60
2022/01/17 09:03:56;;;;;;;30.38;15.20;;;2.60;99.90;;;;;;5135060;27;20412;-59
2022/01/17 09:06:24;;;;;;;20.05;9.00;;;2.70;99.90;;;;;;5134008;27;20039;-60
2022/01/17 09:08:51;;;;;;;19.75;10.63;;;2.80;99.90;;;;;;5134735;27;20399;-61
2022/01/17 09:11:18;;;;;;;24.40;11.13;;;2.80;99.90;;;;;;5134144;27;20130;-60
2022/01/17 09:13:47;;;;;;;29.65;14.00;;;2.80;99.90;;;;;;5134816;27;20068;-60
2022/01/17 09:16:15;;;;;;;38.00;18.80;;;2.90;99.90;;;;;;5134265;27;20047;-60
2022/01/17 09:18:42;;;;;;;34.63;17.45;;;2.80;99.90;;;;;;5134166;27;20043;-60
2022/01/17 09:21:09;;;;;;;35.15;16.65;;;2.70;99.90;;;;;;5134694;27;20100;-59
2022/01/17 09:23:37;;;;;;;35.67;16.52;;;2.70;99.90;;;;;;5134110;27;20512;-60
2022/01/17 09:26:04;;;;;;;34.38;16.55;;;2.60;99.90;;;;;;5134081;27;20076;-59
2022/01/17 09:28:31;;;;;;;38.58;18.67;;;2.70;99.90;;;;;;5133974;27;20043;-60
2022/01/17 09:30:58;;;;;;;42.55;20.05;;;2.60;99.90;;;;;;5134540;27;20035;-60
2022/01/17 09:33:25;;;;;;;40.35;19.13;;;2.70;99.90;;;;;;5134438;27;20069;-59
2022/01/17 09:35:52;;;;;;;43.50;19.85;;;2.70;99.90;;;;;;5133316;27;20035;-60
2022/01/17 09:38:19;;;;;;;43.22;20.15;;;2.60;99.90;;;;;;5133339;27;20453;-61
2022/01/17 09:40:47;;;;;;;45.75;20.92;;;2.70;99.90;;;;;;5133674;27;20035;-60
2022/01/17 09:43:35;;;;;;;36.20;16.48;;;2.70;99.90;;;;;;5134213;27;20546;-60
2022/01/17 09:46:02;;;;;;;53.08;23.55;;;2.80;99.90;;;;;;5133209;27;20053;-60
2022/01/17 09:48:39;;;;;;;;;;;2.80;99.90;;;;;;5134477;27;20059;-60
2022/01/17 09:51:18;;;;;;;40.85;19.95;;;2.80;99.90;;;;;;5133383;27;19919;-60
2022/01/17 09:53:46;;;;;;;41.72;20.15;;;2.80;99.90;;;;;;5134037;27;20052;-60
2022/01/17 09:56:14;;;;;;;43.13;19.23;;;3.00;99.90;;;;;;5132888;27;20092;-60
2022/01/17 09:58:41;;;;;;;43.95;20.90;;;3.10;99.90;;;;;;5133372;27;20050;-60
2022/01/17 10:01:09;;;;;;;49.85;21.02;;;3.20;99.90;;;;;;5133753;27;20050;-60
2022/01/17 10:03:40;;;;;;;44.28;22.15;;;3.20;99.90;;;;;;5133549;27;20047;-60
2022/01/17 10:06:07;;;;;;;46.97;21.58;;;3.30;99.90;;;;;;5133367;27;20054;-60
2022/01/17 10:08:34;;;;;;;46.00;21.88;;;3.50;99.90;;;;;;5133186;27;20043;-60
2022/01/17 10:11:02;;;;;;;34.08;15.07;;;3.50;99.90;;;;;;5133303;27;20503;-60
2022/01/17 10:13:32;;;;;;;50.03;23.30;;;3.70;99.90;;;;;;5133394;27;20054;-60
2022/01/17 10:16:04;;;;;;;48.70;22.83;;;3.70;99.90;;;;;;5133253;27;20100;-60
2022/01/17 10:18:53;;;;;;;51.47;24.00;;;3.60;99.90;;;;;;5132948;27;20514;-60
2022/01/17 10:21:52;;;;;;;41.00;20.33;;;3.70;99.90;;;;;;5133623;27;20103;-60
2022/01/17 10:24:29;;;;;;;49.25;23.00;;;3.70;99.90;;;;;;5132689;27;20047;-60
2022/01/17 10:35:17;;;;;;;40.10;20.20;;;4.30;99.90;;;;;;5132875;27;20046;-60
2022/01/17 10:38:02;;;;;;;38.35;20.52;;;4.30;99.90;;;;;;5133274;27;20563;-60
2022/01/17 10:40:33;;;;;;;41.53;20.65;;;4.50;99.90;;;;;;5132888;27;20055;-60
2022/01/17 10:43:02;;;;;;;39.72;20.15;;;4.60;99.90;;;;;;5132841;27;20039;-60
2022/01/17 10:45:33;;;;;;;38.35;19.42;;;4.70;99.90;;;;;;5132602;27;20095;-60
2022/01/17 10:48:02;;;;;;;36.70;18.98;;;4.80;99.90;;;;;;5132229;27;20455;-60
2022/01/17 10:50:45;;;;;;;39.60;18.83;;;4.90;99.90;;;;;;5132697;27;20049;-60
2022/01/17 10:53:16;;;;;;;38.65;18.65;;;4.90;99.90;;;;;;5132330;27;20051;-60
2022/01/17 10:55:48;;;;;;;38.20;18.85;;;4.90;99.90;;;;;;5132459;27;20536;-60
2022/01/17 10:58:30;;;;;;;39.63;19.27;;;4.80;99.90;;;;;;5132368;27;20080;-59
2022/01/17 11:01:08;;;;;;;36.35;18.92;;;4.80;99.90;;;;;;5132715;27;20077;-58
2022/01/17 11:03:35;;;;;;;;;;;4.70;99.90;;;;;;5132607;27;20073;-60
2022/01/17 11:06:05;;;;;;;39.38;19.15;;;4.70;99.90;;;;;;5132355;27;20001;-60
2022/01/17 11:08:34;;;;;;;35.75;17.70;;;4.80;99.90;;;;;;5132635;27;20039;-59
2022/01/17 11:11:05;;;;;;;35.75;18.73;;;5.00;99.90;;;;;;5131828;27;20042;-60
2022/01/17 11:13:38;;;;;;;38.30;19.42;;;5.00;99.90;;;;;;5132910;27;20305;-60
2022/01/17 11:16:13;;;;;;;33.00;17.75;;;5.00;99.90;;;;;;5131620;27;20053;-60
2022/01/17 11:18:57;;;;;;;36.25;18.08;;;5.10;99.90;;;;;;5132463;27;20065;-60
2022/01/17 11:21:24;;;;;;;29.30;16.88;;;5.20;99.90;;;;;;5131942;27;20043;-60
2022/01/17 11:23:51;;;;;;;31.58;16.33;;;5.20;99.90;;;;;;5132636;27;20039;-60
2022/01/17 11:26:18;;;;;;;35.90;18.30;;;5.30;99.90;;;;;;5131315;27;20092;-60
2022/01/17 11:28:47;;;;;;;32.67;18.55;;;5.40;99.90;;;;;;5132463;28;20043;-60
2022/01/17 11:31:16;;;;;;;33.58;17.73;;;5.60;99.90;;;;;;5131766;28;20088;-60
2022/01/17 11:33:47;;;;;;;37.92;17.80;;;5.70;99.90;;;;;;5132018;28;20047;-60
2022/01/17 11:36:16;;;;;;;33.42;17.75;;;5.70;99.90;;;;;;5132007;28;20053;-60
2022/01/17 11:38:46;;;;;;;33.72;16.85;;;5.50;99.90;;;;;;5131796;28;20076;-60
2022/01/17 11:41:20;;;;;;;33.53;16.33;;;5.50;99.90;;;;;;5132206;28;20081;-60
2022/01/17 11:43:56;;;;;;;33.72;16.98;;;5.30;99.90;;;;;;5131519;28;20047;-60
2022/01/17 11:46:29;;;;;;;32.50;17.30;;;5.30;99.90;;;;;;5131921;28;20051;-60
2022/01/17 11:49:06;;;;;;;30.00;17.38;;;5.40;99.90;;;;;;5131779;28;20088;-60
2022/01/17 11:51:47;;;;;;;27.73;15.60;;;5.30;99.90;;;;;;5132150;28;20518;-60
2022/01/17 11:54:25;;;;;;;34.40;17.20;;;5.30;99.90;;;;;;5131690;28;20039;-60
2022/01/17 11:57:05;;;;;;;30.27;16.33;;;5.50;99.90;;;;;;5131668;28;20035;-60
2022/01/17 11:59:42;;;;;;;31.98;17.48;;;5.50;99.90;;;;;;5131249;27;20556;-60
2022/01/17 12:02:26;;;;;;;31.15;16.73;;;5.50;99.90;;;;;;5135522;27;20126;-60
2022/01/17 12:05:03;;;;;;;29.10;15.93;;;5.60;99.90;;;;;;5135820;27;20096;-60
2022/01/17 12:07:42;;;;;;;34.05;17.67;;;5.50;99.90;;;;;;5135751;27;20414;-60
2022/01/17 12:10:15;;;;;;;33.53;17.10;;;5.60;99.90;;;;;;5135791;27;20050;-60
2022/01/17 12:12:43;;;;;;;31.10;17.13;;;5.60;99.90;;;;;;5135500;27;20043;-60
2022/01/17 12:15:16;;;;;;;33.35;17.33;;;5.50;99.90;;;;;;5136125;27;20067;-60
2022/01/17 12:17:44;;;;;;;30.27;17.08;;;5.50;99.90;;;;;;5135456;27;20031;-60
2022/01/17 12:20:19;;;;;;;31.83;17.17;;;5.60;99.90;;;;;;5135722;27;20047;-60
2022/01/17 12:22:46;;;;;;;31.65;17.52;;;5.60;99.90;;;;;;5134982;27;20103;-60
2022/01/17 12:25:24;;;;;;;37.57;18.83;;;5.60;99.90;;;;;;5135482;27;20043;-60
2022/01/17 12:28:16;;;;;;;36.72;17.58;;;5.60;99.90;;;;;;5135130;27;20287;-60
2022/01/17 12:30:50;;;;;;;35.15;18.48;;;5.40;99.90;;;;;;5135400;27;20104;-60
2022/01/17 12:33:34;;;;;;;40.40;18.10;;;5.50;99.90;;;;;;5134918;27;20049;-60
2022/01/17 12:36:04;;;;;;;33.20;18.50;;;5.50;99.90;;;;;;5135460;27;20047;-60
2022/01/17 12:38:37;;;;;;;33.63;17.02;;;5.60;99.90;;;;;;5135264;27;20096;-60
2022/01/17 12:41:05;;;;;;;32.42;17.50;;;5.60;99.90;;;;;;5135267;27;20043;-60
2022/01/17 12:43:34;;;;;;;32.28;16.85;;;5.60;99.90;;;;;;5135509;27;20047;-60
2022/01/17 12:46:07;;;;;;;36.80;17.20;;;5.60;99.90;;;;;;5134142;27;20051;-60
2022/01/17 12:48:36;;;;;;;31.88;16.92;;;5.50;99.90;;;;;;5135654;27;20403;-60
2022/01/17 12:51:07;;;;;;;32.78;17.90;;;5.50;99.90;;;;;;5134432;27;20035;-60
2022/01/17 12:53:35;;;;;;;38.20;18.15;;;5.60;99.90;;;;;;5135732;27;20049;-60
2022/01/17 12:56:04;;;;;;;34.72;17.00;;;5.50;99.90;;;;;;5134069;27;20754;-60
2022/01/17 12:58:37;;;;;;;36.67;17.73;;;5.50;99.90;;;;;;5135188;27;20491;-60
2022/01/17 13:01:10;;;;;;;28.33;16.33;;;5.40;99.90;;;;;;5134338;27;20070;-60
2022/01/17 13:03:41;;;;;;;44.97;19.45;;;5.30;99.90;;;;;;5135077;27;20078;-59
2022/01/17 13:06:12;;;;;;;33.20;17.95;;;5.40;99.90;;;;;;5134557;27;20050;-60
2022/01/17 13:08:46;;;;;;;34.90;17.83;;;5.30;99.90;;;;;;5134380;27;20103;-60
2022/01/17 13:11:16;;;;;;;39.15;18.52;;;5.50;99.90;;;;;;5134758;27;20035;-60
2022/01/17 13:13:58;;;;;;;32.22;17.08;;;5.60;99.90;;;;;;5134750;27;20104;-60
2022/01/17 13:16:26;;;;;;;34.28;17.50;;;5.60;99.90;;;;;;5134283;27;20049;-60
2022/01/17 13:18:55;;;;;;;30.33;15.77;;;5.70;99.90;;;;;;5134291;27;20395;-60